sensor_id;sensor_type;location;lat;lon;timestamp;P1;durP1;ratioP1;P2;durP2;ratioP2
59424;SDS011;45231;44.826;20.312;2022-11-15T00:01:57;35.90;;;21.27;;
59424;SDS011;45231;44.826;20.312;2022-11-15T00:04:23;35.80;;;22.40;;
59424;SDS011;45231;44.826;20.312;2022-11-15T00:06:49;34.87;;;20.83;;
59424;SDS011;45231;44.826;20.312;2022-11-15T00:09:15;41.03;;;22.75;;
59424;SDS011;45231;44.826;20.312;2022-11-15T00:11:41;38.60;;;20.63;;
59424;SDS011;45231;44.826;20.312;2022-11-15T00:14:07;36.80;;;21.50;;
59424;SDS011;45231;44.826;20.312;2022-11-15T00:16:33;34.90;;;20.47;;
59424;SDS011;45231;44.826;20.312;2022-11-15T00:18:59;33.70;;;21.17;;
59424;SDS011;45231;44.826;20.312;2022-11-15T00:21:25;34.43;;;19.70;;
59424;SDS011;45231;44.826;20.312;2022-11-15T00:23:52;34.55;;;19.27;;
59424;SDS011;45231;44.826;20.312;2022-11-15T00:26:18;33.10;;;18.42;;
59424;SDS011;45231;44.826;20.312;2022-11-15T00:28:44;35.30;;;20.13;;
59424;SDS011;45231;44.826;20.312;2022-11-15T00:31:12;35.20;;;19.88;;
59424;SDS011;45231;44.826;20.312;2022-11-15T00:33:38;34.17;;;18.98;;
59424;SDS011;45231;44.826;20.312;2022-11-15T00:36:05;32.73;;;18.77;;
59424;SDS011;45231;44.826;20.312;2022-11-15T00:38:36;30.92;;;18.15;;
59424;SDS011;45231;44.826;20.312;2022-11-15T00:41:02;31.92;;;18.52;;
59424;SDS011;45231;44.826;20.312;2022-11-15T00:43:29;32.85;;;20.17;;
59424;SDS011;45231;44.826;20.312;2022-11-15T00:45:55;33.28;;;18.88;;
59424;SDS011;45231;44.826;20.312;2022-11-15T00:48:21;35.47;;;20.50;;
59424;SDS011;45231;44.826;20.312;2022-11-15T00:50:48;32.80;;;19.00;;
59424;SDS011;45231;44.826;20.312;2022-11-15T00:53:14;37.40;;;21.30;;
59424;SDS011;45231;44.826;20.312;2022-11-15T00:55:40;43.93;;;24.20;;
59424;SDS011;45231;44.826;20.312;2022-11-15T00:58:06;49.37;;;29.23;;
59424;SDS011;45231;44.826;20.312;2022-11-15T01:00:32;73.30;;;40.13;;
59424;SDS011;45231;44.826;20.312;2022-11-15T01:02:59;83.93;;;47.87;;
59424;SDS011;45231;44.826;20.312;2022-11-15T01:05:25;90.75;;;52.92;;
59424;SDS011;45231;44.826;20.312;2022-11-15T01:07:52;106.80;;;57.17;;
59424;SDS011;45231;44.826;20.312;2022-11-15T01:10:18;122.25;;;64.45;;
59424;SDS011;45231;44.826;20.312;2022-11-15T01:12:44;155.33;;;70.43;;
59424;SDS011;45231;44.826;20.312;2022-11-15T01:15:10;155.87;;;72.40;;
59424;SDS011;45231;44.826;20.312;2022-11-15T01:17:36;142.70;;;70.57;;
59424;SDS011;45231;44.826;20.312;2022-11-15T01:20:03;138.87;;;67.93;;
59424;SDS011;45231;44.826;20.312;2022-11-15T01:22:29;138.43;;;66.40;;
59424;SDS011;45231;44.826;20.312;2022-11-15T01:24:55;126.07;;;66.03;;
59424;SDS011;45231;44.826;20.312;2022-11-15T01:27:21;120.20;;;63.57;;
59424;SDS011;45231;44.826;20.312;2022-11-15T01:29:47;131.27;;;63.43;;
59424;SDS011;45231;44.826;20.312;2022-11-15T01:32:13;135.45;;;63.55;;
59424;SDS011;45231;44.826;20.312;2022-11-15T01:34:39;105.57;;;58.40;;
59424;SDS011;45231;44.826;20.312;2022-11-15T01:37:05;105.03;;;57.70;;
59424;SDS011;45231;44.826;20.312;2022-11-15T01:39:31;111.70;;;54.63;;
59424;SDS011;45231;44.826;20.312;2022-11-15T01:41:57;114.32;;;53.40;;
59424;SDS011;45231;44.826;20.312;2022-11-15T01:47:12;97.57;;;47.45;;
59424;SDS011;45231;44.826;20.312;2022-11-15T01:49:39;125.50;;;45.92;;
59424;SDS011;45231;44.826;20.312;2022-11-15T01:52:09;100.30;;;46.22;;
59424;SDS011;45231;44.826;20.312;2022-11-15T01:54:36;130.18;;;44.30;;
59424;SDS011;45231;44.826;20.312;2022-11-15T01:57:04;129.27;;;46.93;;
59424;SDS011;45231;44.826;20.312;2022-11-15T01:59:32;125.30;;;45.92;;
59424;SDS011;45231;44.826;20.312;2022-11-15T02:01:59;144.75;;;47.60;;
59424;SDS011;45231;44.826;20.312;2022-11-15T02:04:29;121.25;;;49.10;;
59424;SDS011;45231;44.826;20.312;2022-11-15T02:06:56;225.65;;;52.25;;
59424;SDS011;45231;44.826;20.312;2022-11-15T02:09:22;157.40;;;49.67;;
59424;SDS011;45231;44.826;20.312;2022-11-15T02:11:48;143.35;;;50.28;;
59424;SDS011;45231;44.826;20.312;2022-11-15T02:27:13;178.40;;;49.05;;
59424;SDS011;45231;44.826;20.312;2022-11-15T02:32:07;149.25;;;47.92;;
59424;SDS011;45231;44.826;20.312;2022-11-15T02:37:15;128.10;;;47.97;;
59424;SDS011;45231;44.826;20.312;2022-11-15T02:42:28;109.32;;;48.88;;
59424;SDS011;45231;44.826;20.312;2022-11-15T02:45:21;132.18;;;47.90;;
59424;SDS011;45231;44.826;20.312;2022-11-15T02:47:49;94.63;;;44.88;;
59424;SDS011;45231;44.826;20.312;2022-11-15T02:50:18;111.10;;;43.83;;
59424;SDS011;45231;44.826;20.312;2022-11-15T02:52:46;121.82;;;43.78;;
59424;SDS011;45231;44.826;20.312;2022-11-15T02:55:26;110.30;;;45.17;;
59424;SDS011;45231;44.826;20.312;2022-11-15T03:00:49;96.22;;;45.17;;
59424;SDS011;45231;44.826;20.312;2022-11-15T03:03:30;109.65;;;44.28;;
59424;SDS011;45231;44.826;20.312;2022-11-15T03:08:44;120.28;;;45.95;;
59424;SDS011;45231;44.826;20.312;2022-11-15T03:11:13;98.88;;;43.92;;
59424;SDS011;45231;44.826;20.312;2022-11-15T03:13:44;154.23;;;44.42;;
59424;SDS011;45231;44.826;20.312;2022-11-15T03:18:45;215.57;;;47.25;;
59424;SDS011;45231;44.826;20.312;2022-11-15T03:21:13;149.80;;;47.17;;
59424;SDS011;45231;44.826;20.312;2022-11-15T03:23:40;191.85;;;49.90;;
59424;SDS011;45231;44.826;20.312;2022-11-15T03:26:08;279.55;;;54.38;;
59424;SDS011;45231;44.826;20.312;2022-11-15T03:28:40;141.23;;;50.90;;
59424;SDS011;45231;44.826;20.312;2022-11-15T03:31:07;189.57;;;52.90;;
59424;SDS011;45231;44.826;20.312;2022-11-15T03:33:53;483.40;;;71.30;;
59424;SDS011;45231;44.826;20.312;2022-11-15T03:36:21;242.13;;;59.58;;
59424;SDS011;45231;44.826;20.312;2022-11-15T03:38:47;185.25;;;57.90;;
59424;SDS011;45231;44.826;20.312;2022-11-15T03:41:22;191.90;;;56.90;;
59424;SDS011;45231;44.826;20.312;2022-11-15T03:43:53;373.27;;;66.45;;
59424;SDS011;45231;44.826;20.312;2022-11-15T03:46:26;266.17;;;69.40;;
59424;SDS011;45231;44.826;20.312;2022-11-15T03:48:54;200.07;;;66.25;;
59424;SDS011;45231;44.826;20.312;2022-11-15T03:51:23;541.45;;;94.68;;
59424;SDS011;45231;44.826;20.312;2022-11-15T03:53:50;337.00;;;87.33;;
59424;SDS011;45231;44.826;20.312;2022-11-15T03:56:16;372.02;;;79.25;;
59424;SDS011;45231;44.826;20.312;2022-11-15T03:58:42;195.75;;;69.82;;
59424;SDS011;45231;44.826;20.312;2022-11-15T04:01:08;145.35;;;59.08;;
59424;SDS011;45231;44.826;20.312;2022-11-15T04:03:34;115.13;;;53.42;;
59424;SDS011;45231;44.826;20.312;2022-11-15T04:06:00;177.70;;;51.00;;
59424;SDS011;45231;44.826;20.312;2022-11-15T04:08:26;249.05;;;52.30;;
59424;SDS011;45231;44.826;20.312;2022-11-15T04:10:52;188.30;;;52.17;;
59424;SDS011;45231;44.826;20.312;2022-11-15T04:13:18;205.73;;;52.40;;
59424;SDS011;45231;44.826;20.312;2022-11-15T04:15:44;420.52;;;68.35;;
59424;SDS011;45231;44.826;20.312;2022-11-15T04:18:10;585.83;;;79.33;;
59424;SDS011;45231;44.826;20.312;2022-11-15T04:20:36;209.33;;;57.40;;
59424;SDS011;45231;44.826;20.312;2022-11-15T04:23:21;330.40;;;68.55;;
59424;SDS011;45231;44.826;20.312;2022-11-15T04:26:09;188.98;;;62.40;;
59424;SDS011;45231;44.826;20.312;2022-11-15T04:28:36;529.40;;;79.93;;
59424;SDS011;45231;44.826;20.312;2022-11-15T04:31:21;140.88;;;58.72;;
59424;SDS011;45231;44.826;20.312;2022-11-15T04:33:47;517.63;;;75.83;;
59424;SDS011;45231;44.826;20.312;2022-11-15T04:36:13;447.85;;;72.13;;
59424;SDS011;45231;44.826;20.312;2022-11-15T04:38:58;233.55;;;58.92;;
59424;SDS011;45231;44.826;20.312;2022-11-15T04:41:24;403.52;;;71.97;;
59424;SDS011;45231;44.826;20.312;2022-11-15T04:43:50;186.93;;;60.13;;
59424;SDS011;45231;44.826;20.312;2022-11-15T04:46:16;145.02;;;59.20;;
59424;SDS011;45231;44.826;20.312;2022-11-15T04:48:42;245.77;;;63.00;;
59424;SDS011;45231;44.826;20.312;2022-11-15T04:51:08;166.60;;;61.87;;
59424;SDS011;45231;44.826;20.312;2022-11-15T04:53:34;138.93;;;57.20;;
59424;SDS011;45231;44.826;20.312;2022-11-15T04:56:00;131.05;;;57.28;;
59424;SDS011;45231;44.826;20.312;2022-11-15T04:58:26;154.30;;;57.50;;
59424;SDS011;45231;44.826;20.312;2022-11-15T05:00:52;144.10;;;58.33;;
59424;SDS011;45231;44.826;20.312;2022-11-15T05:03:18;236.57;;;69.18;;
59424;SDS011;45231;44.826;20.312;2022-11-15T05:06:03;183.23;;;63.22;;
59424;SDS011;45231;44.826;20.312;2022-11-15T05:08:29;166.63;;;62.95;;
59424;SDS011;45231;44.826;20.312;2022-11-15T05:10:55;127.33;;;56.50;;
59424;SDS011;45231;44.826;20.312;2022-11-15T05:13:21;133.68;;;59.00;;
59424;SDS011;45231;44.826;20.312;2022-11-15T05:15:47;130.25;;;61.17;;
59424;SDS011;45231;44.826;20.312;2022-11-15T05:18:13;110.00;;;55.38;;
59424;SDS011;45231;44.826;20.312;2022-11-15T05:20:39;123.23;;;58.13;;
59424;SDS011;45231;44.826;20.312;2022-11-15T05:23:05;113.40;;;54.88;;
59424;SDS011;45231;44.826;20.312;2022-11-15T05:25:31;114.30;;;55.20;;
59424;SDS011;45231;44.826;20.312;2022-11-15T05:27:58;116.07;;;54.50;;
59424;SDS011;45231;44.826;20.312;2022-11-15T05:30:24;105.87;;;54.73;;
59424;SDS011;45231;44.826;20.312;2022-11-15T05:32:50;101.38;;;53.25;;
59424;SDS011;45231;44.826;20.312;2022-11-15T05:35:18;111.00;;;54.53;;
59424;SDS011;45231;44.826;20.312;2022-11-15T05:37:46;98.60;;;52.53;;
59424;SDS011;45231;44.826;20.312;2022-11-15T05:40:12;97.35;;;51.70;;
59424;SDS011;45231;44.826;20.312;2022-11-15T05:42:38;92.73;;;50.67;;
59424;SDS011;45231;44.826;20.312;2022-11-15T05:45:04;92.47;;;50.13;;
59424;SDS011;45231;44.826;20.312;2022-11-15T05:47:31;97.78;;;50.92;;
59424;SDS011;45231;44.826;20.312;2022-11-15T05:49:59;90.15;;;51.17;;
59424;SDS011;45231;44.826;20.312;2022-11-15T05:52:27;88.73;;;49.93;;
59424;SDS011;45231;44.826;20.312;2022-11-15T05:54:54;76.63;;;46.42;;
59424;SDS011;45231;44.826;20.312;2022-11-15T05:57:21;85.43;;;50.22;;
59424;SDS011;45231;44.826;20.312;2022-11-15T05:59:47;89.87;;;52.33;;
59424;SDS011;45231;44.826;20.312;2022-11-15T06:02:13;88.60;;;51.57;;
59424;SDS011;45231;44.826;20.312;2022-11-15T06:04:39;91.80;;;52.30;;
59424;SDS011;45231;44.826;20.312;2022-11-15T06:07:05;83.70;;;48.60;;
59424;SDS011;45231;44.826;20.312;2022-11-15T06:09:31;87.80;;;52.27;;
59424;SDS011;45231;44.826;20.312;2022-11-15T06:11:57;95.00;;;51.93;;
59424;SDS011;45231;44.826;20.312;2022-11-15T06:14:24;89.27;;;53.53;;
59424;SDS011;45231;44.826;20.312;2022-11-15T06:16:50;90.82;;;51.38;;
59424;SDS011;45231;44.826;20.312;2022-11-15T06:19:16;82.85;;;50.50;;
59424;SDS011;45231;44.826;20.312;2022-11-15T06:21:42;91.37;;;51.73;;
59424;SDS011;45231;44.826;20.312;2022-11-15T06:24:08;83.73;;;49.77;;
59424;SDS011;45231;44.826;20.312;2022-11-15T06:26:34;86.80;;;50.92;;
59424;SDS011;45231;44.826;20.312;2022-11-15T06:29:01;84.17;;;47.90;;
59424;SDS011;45231;44.826;20.312;2022-11-15T06:31:27;77.35;;;46.30;;
59424;SDS011;45231;44.826;20.312;2022-11-15T06:33:53;77.77;;;46.00;;
59424;SDS011;45231;44.826;20.312;2022-11-15T06:36:19;74.87;;;44.23;;
59424;SDS011;45231;44.826;20.312;2022-11-15T06:38:46;75.87;;;45.40;;
59424;SDS011;45231;44.826;20.312;2022-11-15T06:41:12;71.70;;;44.97;;
59424;SDS011;45231;44.826;20.312;2022-11-15T06:46:05;80.15;;;46.58;;
59424;SDS011;45231;44.826;20.312;2022-11-15T06:48:32;76.28;;;47.38;;
59424;SDS011;45231;44.826;20.312;2022-11-15T06:50:58;76.35;;;46.90;;
59424;SDS011;45231;44.826;20.312;2022-11-15T06:53:25;77.72;;;45.88;;
59424;SDS011;45231;44.826;20.312;2022-11-15T06:55:51;74.78;;;45.67;;
59424;SDS011;45231;44.826;20.312;2022-11-15T06:58:17;71.97;;;44.95;;
59424;SDS011;45231;44.826;20.312;2022-11-15T07:00:43;71.43;;;45.43;;
59424;SDS011;45231;44.826;20.312;2022-11-15T07:03:09;75.88;;;46.40;;
59424;SDS011;45231;44.826;20.312;2022-11-15T07:05:35;76.93;;;46.73;;
59424;SDS011;45231;44.826;20.312;2022-11-15T07:08:02;71.03;;;44.57;;
59424;SDS011;45231;44.826;20.312;2022-11-15T07:10:28;71.38;;;44.47;;
59424;SDS011;45231;44.826;20.312;2022-11-15T07:12:54;76.18;;;46.85;;
59424;SDS011;45231;44.826;20.312;2022-11-15T07:15:21;72.03;;;45.70;;
59424;SDS011;45231;44.826;20.312;2022-11-15T07:17:48;74.72;;;45.45;;
59424;SDS011;45231;44.826;20.312;2022-11-15T07:20:14;68.35;;;43.83;;
59424;SDS011;45231;44.826;20.312;2022-11-15T07:22:40;85.20;;;50.90;;
59424;SDS011;45231;44.826;20.312;2022-11-15T07:25:07;80.30;;;49.25;;
59424;SDS011;45231;44.826;20.312;2022-11-15T07:27:33;74.68;;;46.03;;
59424;SDS011;45231;44.826;20.312;2022-11-15T07:29:59;80.38;;;48.13;;
59424;SDS011;45231;44.826;20.312;2022-11-15T07:32:25;76.13;;;47.72;;
59424;SDS011;45231;44.826;20.312;2022-11-15T07:34:51;69.43;;;46.17;;
59424;SDS011;45231;44.826;20.312;2022-11-15T07:37:17;77.70;;;49.00;;
59424;SDS011;45231;44.826;20.312;2022-11-15T07:39:44;74.75;;;47.40;;
59424;SDS011;45231;44.826;20.312;2022-11-15T07:42:10;74.93;;;48.45;;
59424;SDS011;45231;44.826;20.312;2022-11-15T07:44:55;80.10;;;49.85;;
59424;SDS011;45231;44.826;20.312;2022-11-15T07:47:21;86.43;;;54.07;;
59424;SDS011;45231;44.826;20.312;2022-11-15T07:49:47;74.33;;;48.57;;
59424;SDS011;45231;44.826;20.312;2022-11-15T07:52:13;69.47;;;44.43;;
59424;SDS011;45231;44.826;20.312;2022-11-15T07:54:39;65.45;;;43.70;;
59424;SDS011;45231;44.826;20.312;2022-11-15T07:57:05;67.47;;;43.83;;
59424;SDS011;45231;44.826;20.312;2022-11-15T07:59:32;54.33;;;37.90;;
59424;SDS011;45231;44.826;20.312;2022-11-15T08:01:59;48.17;;;35.05;;
59424;SDS011;45231;44.826;20.312;2022-11-15T08:04:25;44.60;;;33.33;;
59424;SDS011;45231;44.826;20.312;2022-11-15T08:06:51;42.33;;;32.97;;
59424;SDS011;45231;44.826;20.312;2022-11-15T08:09:17;39.72;;;29.95;;
59424;SDS011;45231;44.826;20.312;2022-11-15T08:11:43;39.15;;;29.05;;
59424;SDS011;45231;44.826;20.312;2022-11-15T08:14:09;41.97;;;31.02;;
59424;SDS011;45231;44.826;20.312;2022-11-15T08:16:35;40.17;;;27.95;;
59424;SDS011;45231;44.826;20.312;2022-11-15T08:19:01;40.15;;;29.40;;
59424;SDS011;45231;44.826;20.312;2022-11-15T08:21:27;38.53;;;29.45;;
59424;SDS011;45231;44.826;20.312;2022-11-15T08:23:53;38.17;;;27.77;;
59424;SDS011;45231;44.826;20.312;2022-11-15T08:26:19;39.15;;;28.10;;
59424;SDS011;45231;44.826;20.312;2022-11-15T08:28:46;37.08;;;27.08;;
59424;SDS011;45231;44.826;20.312;2022-11-15T08:31:16;35.78;;;27.10;;
59424;SDS011;45231;44.826;20.312;2022-11-15T08:33:43;34.15;;;26.42;;
59424;SDS011;45231;44.826;20.312;2022-11-15T08:36:13;37.95;;;28.20;;
59424;SDS011;45231;44.826;20.312;2022-11-15T08:38:40;41.00;;;28.35;;
59424;SDS011;45231;44.826;20.312;2022-11-15T08:41:06;42.38;;;29.98;;
59424;SDS011;45231;44.826;20.312;2022-11-15T08:43:32;39.42;;;28.40;;
59424;SDS011;45231;44.826;20.312;2022-11-15T08:45:59;39.42;;;28.58;;
59424;SDS011;45231;44.826;20.312;2022-11-15T08:48:25;39.85;;;29.65;;
59424;SDS011;45231;44.826;20.312;2022-11-15T08:50:54;40.17;;;29.63;;
59424;SDS011;45231;44.826;20.312;2022-11-15T08:53:20;39.72;;;30.08;;
59424;SDS011;45231;44.826;20.312;2022-11-15T08:55:47;37.30;;;28.80;;
59424;SDS011;45231;44.826;20.312;2022-11-15T08:58:13;38.25;;;28.67;;
59424;SDS011;45231;44.826;20.312;2022-11-15T09:00:39;41.72;;;30.77;;
59424;SDS011;45231;44.826;20.312;2022-11-15T09:03:05;39.95;;;32.25;;
59424;SDS011;45231;44.826;20.312;2022-11-15T09:05:32;47.88;;;31.33;;
59424;SDS011;45231;44.826;20.312;2022-11-15T09:07:58;40.25;;;29.77;;
59424;SDS011;45231;44.826;20.312;2022-11-15T09:10:24;39.33;;;29.17;;
59424;SDS011;45231;44.826;20.312;2022-11-15T09:12:50;37.65;;;29.25;;
59424;SDS011;45231;44.826;20.312;2022-11-15T09:15:16;39.85;;;30.65;;
59424;SDS011;45231;44.826;20.312;2022-11-15T09:17:42;45.97;;;30.33;;
59424;SDS011;45231;44.826;20.312;2022-11-15T09:20:08;39.65;;;29.23;;
59424;SDS011;45231;44.826;20.312;2022-11-15T09:22:35;40.78;;;30.08;;
59424;SDS011;45231;44.826;20.312;2022-11-15T09:25:02;39.90;;;29.10;;
59424;SDS011;45231;44.826;20.312;2022-11-15T09:29:53;41.20;;;28.90;;
59424;SDS011;45231;44.826;20.312;2022-11-15T09:32:20;42.53;;;30.35;;
59424;SDS011;45231;44.826;20.312;2022-11-15T09:34:47;40.35;;;29.95;;
59424;SDS011;45231;44.826;20.312;2022-11-15T09:37:13;44.60;;;32.08;;
59424;SDS011;45231;44.826;20.312;2022-11-15T09:39:39;41.97;;;30.88;;
59424;SDS011;45231;44.826;20.312;2022-11-15T09:44:43;42.97;;;29.98;;
59424;SDS011;45231;44.826;20.312;2022-11-15T09:49:36;46.42;;;30.80;;
59424;SDS011;45231;44.826;20.312;2022-11-15T09:52:02;42.95;;;29.52;;
59424;SDS011;45231;44.826;20.312;2022-11-15T09:54:35;38.35;;;29.40;;
59424;SDS011;45231;44.826;20.312;2022-11-15T09:59:46;40.83;;;31.65;;
59424;SDS011;45231;44.826;20.312;2022-11-15T10:04:41;37.22;;;29.65;;
59424;SDS011;45231;44.826;20.312;2022-11-15T10:07:14;37.30;;;28.80;;
59424;SDS011;45231;44.826;20.312;2022-11-15T10:09:47;39.13;;;29.50;;
59424;SDS011;45231;44.826;20.312;2022-11-15T10:12:16;37.72;;;27.90;;
59424;SDS011;45231;44.826;20.312;2022-11-15T10:14:43;38.55;;;29.25;;
59424;SDS011;45231;44.826;20.312;2022-11-15T10:24:46;43.55;;;32.22;;
59424;SDS011;45231;44.826;20.312;2022-11-15T10:27:17;43.95;;;32.65;;
59424;SDS011;45231;44.826;20.312;2022-11-15T10:29:47;48.10;;;34.03;;
59424;SDS011;45231;44.826;20.312;2022-11-15T10:32:14;52.80;;;33.42;;
59424;SDS011;45231;44.826;20.312;2022-11-15T10:34:41;50.15;;;33.38;;
59424;SDS011;45231;44.826;20.312;2022-11-15T10:39:33;46.17;;;31.10;;
59424;SDS011;45231;44.826;20.312;2022-11-15T10:42:16;47.13;;;31.65;;
59424;SDS011;45231;44.826;20.312;2022-11-15T10:44:43;42.75;;;32.53;;
59424;SDS011;45231;44.826;20.312;2022-11-15T10:49:58;44.72;;;32.63;;
59424;SDS011;45231;44.826;20.312;2022-11-15T10:52:24;45.25;;;31.17;;
59424;SDS011;45231;44.826;20.312;2022-11-15T10:59:46;135.05;;;35.67;;
59424;SDS011;45231;44.826;20.312;2022-11-15T11:07:56;46.67;;;33.55;;
59424;SDS011;45231;44.826;20.312;2022-11-15T11:10:23;50.33;;;33.95;;
59424;SDS011;45231;44.826;20.312;2022-11-15T11:12:49;50.40;;;35.22;;
59424;SDS011;45231;44.826;20.312;2022-11-15T11:15:16;50.55;;;35.03;;
59424;SDS011;45231;44.826;20.312;2022-11-15T11:25:25;55.30;;;36.35;;
59424;SDS011;45231;44.826;20.312;2022-11-15T11:28:05;49.58;;;35.33;;
59424;SDS011;45231;44.826;20.312;2022-11-15T11:30:46;50.22;;;35.13;;
59424;SDS011;45231;44.826;20.312;2022-11-15T11:41:20;49.72;;;35.45;;
59424;SDS011;45231;44.826;20.312;2022-11-15T11:49:24;56.13;;;35.25;;
59424;SDS011;45231;44.826;20.312;2022-11-15T11:51:53;47.78;;;32.78;;
59424;SDS011;45231;44.826;20.312;2022-11-15T11:54:22;46.30;;;33.53;;
59424;SDS011;45231;44.826;20.312;2022-11-15T11:56:51;52.67;;;34.25;;
59424;SDS011;45231;44.826;20.312;2022-11-15T12:01:44;51.13;;;36.72;;
59424;SDS011;45231;44.826;20.312;2022-11-15T12:04:30;49.13;;;34.22;;
59424;SDS011;45231;44.826;20.312;2022-11-15T12:06:59;50.88;;;35.28;;
59424;SDS011;45231;44.826;20.312;2022-11-15T12:12:02;48.63;;;36.13;;
59424;SDS011;45231;44.826;20.312;2022-11-15T12:14:51;50.35;;;36.25;;
59424;SDS011;45231;44.826;20.312;2022-11-15T12:17:26;52.05;;;36.50;;
59424;SDS011;45231;44.826;20.312;2022-11-15T12:19:56;63.17;;;36.40;;
59424;SDS011;45231;44.826;20.312;2022-11-15T12:22:42;58.70;;;38.20;;
59424;SDS011;45231;44.826;20.312;2022-11-15T12:25:31;50.53;;;35.42;;
59424;SDS011;45231;44.826;20.312;2022-11-15T12:28:06;63.58;;;38.38;;
59424;SDS011;45231;44.826;20.312;2022-11-15T12:35:58;53.58;;;35.30;;
59424;SDS011;45231;44.826;20.312;2022-11-15T12:41:16;54.80;;;35.92;;
59424;SDS011;45231;44.826;20.312;2022-11-15T12:43:43;50.38;;;35.67;;
59424;SDS011;45231;44.826;20.312;2022-11-15T12:51:02;52.60;;;34.13;;
59424;SDS011;45231;44.826;20.312;2022-11-15T12:53:30;56.50;;;35.22;;
59424;SDS011;45231;44.826;20.312;2022-11-15T13:01:07;51.65;;;35.65;;
59424;SDS011;45231;44.826;20.312;2022-11-15T13:03:33;55.75;;;36.38;;
59424;SDS011;45231;44.826;20.312;2022-11-15T13:06:01;57.60;;;38.05;;
59424;SDS011;45231;44.826;20.312;2022-11-15T13:08:41;53.22;;;36.10;;
59424;SDS011;45231;44.826;20.312;2022-11-15T13:11:41;58.40;;;37.65;;
59424;SDS011;45231;44.826;20.312;2022-11-15T13:16:58;48.10;;;33.88;;
59424;SDS011;45231;44.826;20.312;2022-11-15T13:19:24;46.10;;;30.90;;
59424;SDS011;45231;44.826;20.312;2022-11-15T13:21:50;44.38;;;29.67;;
59424;SDS011;45231;44.826;20.312;2022-11-15T13:24:37;49.17;;;29.73;;
59424;SDS011;45231;44.826;20.312;2022-11-15T13:27:14;36.72;;;25.92;;
59424;SDS011;45231;44.826;20.312;2022-11-15T13:29:43;38.40;;;25.77;;
59424;SDS011;45231;44.826;20.312;2022-11-15T13:32:13;44.13;;;26.73;;
59424;SDS011;45231;44.826;20.312;2022-11-15T13:34:42;39.70;;;26.48;;
59424;SDS011;45231;44.826;20.312;2022-11-15T13:39:47;34.13;;;24.25;;
59424;SDS011;45231;44.826;20.312;2022-11-15T13:42:17;47.05;;;26.63;;
59424;SDS011;45231;44.826;20.312;2022-11-15T13:45:00;40.47;;;26.23;;
59424;SDS011;45231;44.826;20.312;2022-11-15T13:47:27;34.92;;;24.15;;
59424;SDS011;45231;44.826;20.312;2022-11-15T13:49:53;27.17;;;12.60;;
59424;SDS011;45231;44.826;20.312;2022-11-15T13:52:22;22.15;;;10.02;;
59424;SDS011;45231;44.826;20.312;2022-11-15T14:00:30;28.45;;;20.45;;
59424;SDS011;45231;44.826;20.312;2022-11-15T14:02:53;31.15;;;19.58;;
59424;SDS011;45231;44.826;20.312;2022-11-15T14:05:20;30.15;;;18.92;;
59424;SDS011;45231;44.826;20.312;2022-11-15T14:07:55;29.02;;;18.85;;
59424;SDS011;45231;44.826;20.312;2022-11-15T14:10:31;32.45;;;19.60;;
59424;SDS011;45231;44.826;20.312;2022-11-15T14:12:57;38.53;;;20.23;;
59424;SDS011;45231;44.826;20.312;2022-11-15T14:15:34;30.67;;;19.65;;
59424;SDS011;45231;44.826;20.312;2022-11-15T14:18:00;31.35;;;20.27;;
59424;SDS011;45231;44.826;20.312;2022-11-15T14:20:31;35.47;;;20.58;;
59424;SDS011;45231;44.826;20.312;2022-11-15T14:22:59;30.70;;;19.67;;
59424;SDS011;45231;44.826;20.312;2022-11-15T14:25:27;27.20;;;18.73;;
59424;SDS011;45231;44.826;20.312;2022-11-15T14:28:10;27.73;;;17.80;;
59424;SDS011;45231;44.826;20.312;2022-11-15T14:30:36;26.02;;;17.75;;
59424;SDS011;45231;44.826;20.312;2022-11-15T14:33:17;28.45;;;17.42;;
59424;SDS011;45231;44.826;20.312;2022-11-15T14:35:43;34.67;;;17.98;;
59424;SDS011;45231;44.826;20.312;2022-11-15T14:38:10;32.03;;;18.50;;
59424;SDS011;45231;44.826;20.312;2022-11-15T14:40:41;66.07;;;21.80;;
59424;SDS011;45231;44.826;20.312;2022-11-15T14:43:08;52.42;;;23.10;;
59424;SDS011;45231;44.826;20.312;2022-11-15T14:45:36;50.15;;;21.40;;
59424;SDS011;45231;44.826;20.312;2022-11-15T14:48:02;44.90;;;20.67;;
59424;SDS011;45231;44.826;20.312;2022-11-15T14:50:28;35.38;;;21.17;;
59424;SDS011;45231;44.826;20.312;2022-11-15T14:52:54;35.17;;;19.10;;
59424;SDS011;45231;44.826;20.312;2022-11-15T14:55:21;32.08;;;20.42;;
59424;SDS011;45231;44.826;20.312;2022-11-15T14:57:48;31.30;;;19.30;;
59424;SDS011;45231;44.826;20.312;2022-11-15T15:00:15;30.88;;;19.70;;
59424;SDS011;45231;44.826;20.312;2022-11-15T15:02:41;30.90;;;19.75;;
59424;SDS011;45231;44.826;20.312;2022-11-15T15:07:34;35.00;;;20.95;;
59424;SDS011;45231;44.826;20.312;2022-11-15T15:10:00;33.08;;;20.30;;
59424;SDS011;45231;44.826;20.312;2022-11-15T15:12:26;45.72;;;22.48;;
59424;SDS011;45231;44.826;20.312;2022-11-15T15:14:52;64.32;;;23.08;;
59424;SDS011;45231;44.826;20.312;2022-11-15T15:17:18;51.83;;;23.50;;
59424;SDS011;45231;44.826;20.312;2022-11-15T15:19:44;42.13;;;20.67;;
59424;SDS011;45231;44.826;20.312;2022-11-15T15:22:17;34.75;;;20.48;;
59424;SDS011;45231;44.826;20.312;2022-11-15T15:24:43;32.15;;;20.85;;
59424;SDS011;45231;44.826;20.312;2022-11-15T15:27:10;39.60;;;22.23;;
59424;SDS011;45231;44.826;20.312;2022-11-15T15:29:36;87.97;;;25.17;;
59424;SDS011;45231;44.826;20.312;2022-11-15T15:32:02;51.22;;;23.08;;
59424;SDS011;45231;44.826;20.312;2022-11-15T15:34:29;45.00;;;22.63;;
59424;SDS011;45231;44.826;20.312;2022-11-15T15:39:33;52.50;;;27.92;;
59424;SDS011;45231;44.826;20.312;2022-11-15T15:41:59;69.38;;;36.00;;
59424;SDS011;45231;44.826;20.312;2022-11-15T15:44:25;56.90;;;34.15;;
59424;SDS011;45231;44.826;20.312;2022-11-15T15:46:51;56.65;;;33.30;;
59424;SDS011;45231;44.826;20.312;2022-11-15T15:49:17;54.92;;;32.58;;
59424;SDS011;45231;44.826;20.312;2022-11-15T15:51:44;57.60;;;36.07;;
59424;SDS011;45231;44.826;20.312;2022-11-15T15:54:10;51.33;;;31.37;;
59424;SDS011;45231;44.826;20.312;2022-11-15T15:56:36;65.65;;;41.38;;
59424;SDS011;45231;44.826;20.312;2022-11-15T15:59:02;67.18;;;41.72;;
59424;SDS011;45231;44.826;20.312;2022-11-15T16:01:28;71.15;;;42.67;;
59424;SDS011;45231;44.826;20.312;2022-11-15T16:03:54;88.63;;;50.85;;
59424;SDS011;45231;44.826;20.312;2022-11-15T16:06:36;83.57;;;46.60;;
59424;SDS011;45231;44.826;20.312;2022-11-15T16:09:04;74.75;;;45.20;;
59424;SDS011;45231;44.826;20.312;2022-11-15T16:11:30;85.93;;;51.08;;
59424;SDS011;45231;44.826;20.312;2022-11-15T16:13:56;78.27;;;51.73;;
59424;SDS011;45231;44.826;20.312;2022-11-15T16:16:22;87.43;;;54.42;;
59424;SDS011;45231;44.826;20.312;2022-11-15T16:18:48;92.63;;;57.25;;
59424;SDS011;45231;44.826;20.312;2022-11-15T16:21:14;90.67;;;55.23;;
59424;SDS011;45231;44.826;20.312;2022-11-15T16:23:40;95.03;;;53.30;;